White Sulphur Springs, MT

4:53 PM MDT on July 28, 2016 (GMT -0600)
| | Change Station

Elev -9999 ft 0.00 °N, 0.00 °E | Updated

Clear
Clear
74 °F
Feels Like 74 °F
N
7
Wind Variable Wind from East
Gusts mph

Today
High -- | Low -- °F
--% Chance of Precip.
Yesterday
High -- | Low -- °F
Precip. -- in
Pressure 30.03 in
Visibility 10.0 miles
Clouds Clear
Dew Point 49 °F
Humidity 42%
Rainfall --
Snow Depth Not available.
6:01 AM 9:00 PM
Waning Crescent, 28% visible
METAR KHLN 282153Z 01007KT 330V030 10SM CLR 31/08 A3009 RMK AO2 SLP167 T03110078
Pressure 30.03 in
Visibility 10.0 miles
Clouds Clear
Dew Point 49 °F
Humidity 42%
Rainfall --
Snow Depth Not available.
6:01 AM 9:00 PM
Waning Crescent, 28% visible
METAR KHLN 282153Z 01007KT 330V030 10SM CLR 31/08 A3009 RMK AO2 SLP167 T03110078

10-Day Weather Forecast

Almanac

Astronomy

Jul. 28, 2016 Rise Set
Actual Time
Civil Twilight
Nautical Twilight
Astronomical Twilight
Moon
Length of Visible Light
Length of Day
Tomorrow will be .
, % of the Moon is Illuminated

Today's Extremes

State Highs State Lows

Community

WunderPhotos

Upload Photos

1,928,220 photos uploaded!

WunderBlog® & News

Nearby

Air Quality

  Air Quality AQ Index Pollutant
Not available.

Snow Depth

Station Depth Elevation

Earthquake Activity

City Distance Mag. Time & Date
Minimum magnitude displayed is 2.5.

Coastal Water Temperatures

Place Temperature

Stations

Nearby Weather Stations

Station Location Temp. Windchill Dew Point Humidity Wind Precip. Elev Updated Type
                   

Watches & Warnings

There are currently no watches in effect.